sensor_id;sensor_type;location;lat;lon;timestamp;pressure;altitude;pressure_sealevel;temperature;humidity
13867;BME280;7003;46.982;15.248;2023-08-08T00:00:57;97376.13;;;11.05;100.00
13867;BME280;7003;46.982;15.248;2023-08-08T00:03:27;97373.19;;;10.98;100.00
13867;BME280;7003;46.982;15.248;2023-08-08T00:05:56;97379.47;;;10.94;100.00
13867;BME280;7003;46.982;15.248;2023-08-08T00:08:25;97380.25;;;10.94;100.00
13867;BME280;7003;46.982;15.248;2023-08-08T00:10:54;97371.16;;;10.95;100.00
13867;BME280;7003;46.982;15.248;2023-08-08T00:13:24;97369.88;;;11.01;100.00
13867;BME280;7003;46.982;15.248;2023-08-08T00:15:52;97373.16;;;11.07;100.00
13867;BME280;7003;46.982;15.248;2023-08-08T00:18:22;97374.75;;;10.99;100.00
13867;BME280;7003;46.982;15.248;2023-08-08T00:20:52;97374.97;;;10.86;100.00
13867;BME280;7003;46.982;15.248;2023-08-08T00:23:25;97378.88;;;10.88;100.00
13867;BME280;7003;46.982;15.248;2023-08-08T00:25:53;97368.28;;;10.79;100.00
13867;BME280;7003;46.982;15.248;2023-08-08T00:28:20;97371.56;;;10.76;100.00
13867;BME280;7003;46.982;15.248;2023-08-08T00:30:50;97378.94;;;10.71;100.00
13867;BME280;7003;46.982;15.248;2023-08-08T00:33:18;97375.00;;;10.77;100.00
13867;BME280;7003;46.982;15.248;2023-08-08T00:35:45;97373.16;;;10.69;100.00
13867;BME280;7003;46.982;15.248;2023-08-08T00:38:15;97366.63;;;10.66;100.00
13867;BME280;7003;46.982;15.248;2023-08-08T00:40:46;97374.72;;;10.70;100.00
13867;BME280;7003;46.982;15.248;2023-08-08T00:43:13;97368.97;;;10.68;100.00
13867;BME280;7003;46.982;15.248;2023-08-08T00:45:42;97365.38;;;10.64;100.00
13867;BME280;7003;46.982;15.248;2023-08-08T00:48:14;97368.22;;;10.59;100.00
13867;BME280;7003;46.982;15.248;2023-08-08T00:50:42;97370.50;;;10.69;100.00
13867;BME280;7003;46.982;15.248;2023-08-08T00:53:13;97381.03;;;10.57;100.00
13867;BME280;7003;46.982;15.248;2023-08-08T00:55:42;97377.75;;;10.60;100.00
13867;BME280;7003;46.982;15.248;2023-08-08T00:58:15;97368.09;;;10.47;100.00
13867;BME280;7003;46.982;15.248;2023-08-08T01:00:45;97361.59;;;10.27;100.00
13867;BME280;7003;46.982;15.248;2023-08-08T01:03:12;97360.50;;;10.19;100.00
13867;BME280;7003;46.982;15.248;2023-08-08T01:05:44;97366.59;;;10.20;100.00
13867;BME280;7003;46.982;15.248;2023-08-08T01:08:17;97363.16;;;10.28;100.00
13867;BME280;7003;46.982;15.248;2023-08-08T01:10:50;97369.75;;;10.22;100.00
13867;BME280;7003;46.982;15.248;2023-08-08T01:13:22;97372.72;;;10.20;100.00
13867;BME280;7003;46.982;15.248;2023-08-08T01:15:53;97367.06;;;10.13;100.00
13867;BME280;7003;46.982;15.248;2023-08-08T01:18:25;97377.06;;;10.16;100.00
13867;BME280;7003;46.982;15.248;2023-08-08T01:20:56;97375.47;;;10.15;100.00
13867;BME280;7003;46.982;15.248;2023-08-08T01:23:30;97384.72;;;10.09;100.00
13867;BME280;7003;46.982;15.248;2023-08-08T01:26:04;97382.06;;;10.09;100.00
13867;BME280;7003;46.982;15.248;2023-08-08T01:28:35;97387.38;;;10.09;100.00
13867;BME280;7003;46.982;15.248;2023-08-08T01:31:02;97387.25;;;10.14;100.00
13867;BME280;7003;46.982;15.248;2023-08-08T01:33:31;97391.31;;;10.20;100.00
13867;BME280;7003;46.982;15.248;2023-08-08T01:36:03;97389.28;;;10.17;100.00
13867;BME280;7003;46.982;15.248;2023-08-08T01:38:34;97386.44;;;10.22;100.00
13867;BME280;7003;46.982;15.248;2023-08-08T01:41:06;97384.59;;;9.97;100.00
13867;BME280;7003;46.982;15.248;2023-08-08T01:43:34;97389.13;;;9.88;100.00
13867;BME280;7003;46.982;15.248;2023-08-08T01:46:02;97386.66;;;9.65;100.00
13867;BME280;7003;46.982;15.248;2023-08-08T01:48:30;97383.38;;;9.51;100.00
13867;BME280;7003;46.982;15.248;2023-08-08T01:50:57;97380.84;;;9.63;100.00
13867;BME280;7003;46.982;15.248;2023-08-08T01:53:28;97384.47;;;9.59;100.00
13867;BME280;7003;46.982;15.248;2023-08-08T01:55:57;97382.72;;;9.54;100.00
13867;BME280;7003;46.982;15.248;2023-08-08T01:58:26;97378.03;;;9.69;100.00
13867;BME280;7003;46.982;15.248;2023-08-08T02:00:58;97382.72;;;9.54;100.00
13867;BME280;7003;46.982;15.248;2023-08-08T02:03:29;97378.50;;;9.53;100.00
13867;BME280;7003;46.982;15.248;2023-08-08T02:05:57;97387.44;;;9.66;100.00
13867;BME280;7003;46.982;15.248;2023-08-08T02:08:27;97387.09;;;9.50;100.00
13867;BME280;7003;46.982;15.248;2023-08-08T02:10:55;97387.56;;;9.44;100.00
13867;BME280;7003;46.982;15.248;2023-08-08T02:13:26;97390.06;;;9.40;100.00
13867;BME280;7003;46.982;15.248;2023-08-08T02:15:54;97384.28;;;9.38;100.00
13867;BME280;7003;46.982;15.248;2023-08-08T02:18:26;97388.34;;;9.44;100.00
13867;BME280;7003;46.982;15.248;2023-08-08T02:20:55;97390.56;;;9.51;100.00
13867;BME280;7003;46.982;15.248;2023-08-08T02:23:22;97392.56;;;9.54;100.00
13867;BME280;7003;46.982;15.248;2023-08-08T02:25:49;97398.81;;;9.41;100.00
13867;BME280;7003;46.982;15.248;2023-08-08T02:28:19;97400.34;;;9.33;100.00
13867;BME280;7003;46.982;15.248;2023-08-08T02:30:47;97391.47;;;9.46;100.00
13867;BME280;7003;46.982;15.248;2023-08-08T02:33:16;97395.97;;;9.37;100.00
13867;BME280;7003;46.982;15.248;2023-08-08T02:35:43;97389.75;;;9.33;100.00
13867;BME280;7003;46.982;15.248;2023-08-08T02:38:13;97394.44;;;9.27;100.00
13867;BME280;7003;46.982;15.248;2023-08-08T02:40:42;97398.47;;;9.25;100.00
13867;BME280;7003;46.982;15.248;2023-08-08T02:43:09;97402.50;;;9.22;100.00
13867;BME280;7003;46.982;15.248;2023-08-08T02:45:40;97398.59;;;9.11;100.00
13867;BME280;7003;46.982;15.248;2023-08-08T02:48:11;97403.28;;;9.23;100.00
13867;BME280;7003;46.982;15.248;2023-08-08T02:50:41;97402.22;;;9.24;100.00
13867;BME280;7003;46.982;15.248;2023-08-08T02:53:10;97400.00;;;9.09;100.00
13867;BME280;7003;46.982;15.248;2023-08-08T02:55:39;97406.25;;;9.04;100.00
13867;BME280;7003;46.982;15.248;2023-08-08T02:58:09;97407.13;;;9.00;100.00
13867;BME280;7003;46.982;15.248;2023-08-08T03:00:37;97403.69;;;8.99;100.00
13867;BME280;7003;46.982;15.248;2023-08-08T03:03:04;97406.66;;;8.89;100.00
13867;BME280;7003;46.982;15.248;2023-08-08T03:05:33;97412.00;;;8.98;100.00
13867;BME280;7003;46.982;15.248;2023-08-08T03:08:02;97408.22;;;8.90;100.00
13867;BME280;7003;46.982;15.248;2023-08-08T03:10:31;97415.69;;;8.88;100.00
13867;BME280;7003;46.982;15.248;2023-08-08T03:12:58;97409.31;;;8.89;100.00
13867;BME280;7003;46.982;15.248;2023-08-08T03:15:25;97405.91;;;8.97;100.00
13867;BME280;7003;46.982;15.248;2023-08-08T03:17:54;97415.53;;;8.84;100.00
13867;BME280;7003;46.982;15.248;2023-08-08T03:20:24;97411.47;;;8.87;100.00
13867;BME280;7003;46.982;15.248;2023-08-08T03:22:55;97409.69;;;8.65;100.00
13867;BME280;7003;46.982;15.248;2023-08-08T03:25:24;97413.72;;;8.63;100.00
13867;BME280;7003;46.982;15.248;2023-08-08T03:27:51;97410.53;;;8.52;100.00
13867;BME280;7003;46.982;15.248;2023-08-08T03:30:21;97418.38;;;8.57;100.00
13867;BME280;7003;46.982;15.248;2023-08-08T03:32:51;97410.06;;;8.50;100.00
13867;BME280;7003;46.982;15.248;2023-08-08T03:35:21;97408.84;;;8.56;100.00
13867;BME280;7003;46.982;15.248;2023-08-08T03:37:50;97406.59;;;8.41;100.00
13867;BME280;7003;46.982;15.248;2023-08-08T03:40:19;97404.94;;;8.54;100.00
13867;BME280;7003;46.982;15.248;2023-08-08T03:42:46;97404.19;;;8.62;100.00
13867;BME280;7003;46.982;15.248;2023-08-08T03:45:14;97410.63;;;8.38;100.00
13867;BME280;7003;46.982;15.248;2023-08-08T03:47:43;97406.47;;;8.46;100.00
13867;BME280;7003;46.982;15.248;2023-08-08T03:50:13;97415.97;;;8.25;100.00
13867;BME280;7003;46.982;15.248;2023-08-08T03:52:40;97417.19;;;8.19;100.00
13867;BME280;7003;46.982;15.248;2023-08-08T03:55:08;97419.16;;;8.13;100.00
13867;BME280;7003;46.982;15.248;2023-08-08T03:57:36;97429.00;;;8.13;100.00
13867;BME280;7003;46.982;15.248;2023-08-08T04:00:06;97431.53;;;8.18;100.00
13867;BME280;7003;46.982;15.248;2023-08-08T04:02:34;97433.88;;;8.19;100.00
13867;BME280;7003;46.982;15.248;2023-08-08T04:05:02;97435.19;;;8.30;100.00
13867;BME280;7003;46.982;15.248;2023-08-08T04:07:33;97443.06;;;8.22;100.00
13867;BME280;7003;46.982;15.248;2023-08-08T04:10:00;97438.91;;;8.29;100.00
13867;BME280;7003;46.982;15.248;2023-08-08T04:12:28;97440.09;;;8.37;100.00
13867;BME280;7003;46.982;15.248;2023-08-08T04:14:58;97447.09;;;8.33;100.00
13867;BME280;7003;46.982;15.248;2023-08-08T04:17:29;97446.06;;;8.29;100.00
13867;BME280;7003;46.982;15.248;2023-08-08T04:19:59;97451.31;;;8.34;100.00
13867;BME280;7003;46.982;15.248;2023-08-08T04:22:30;97454.25;;;8.32;100.00
13867;BME280;7003;46.982;15.248;2023-08-08T04:24:58;97450.22;;;8.35;100.00
13867;BME280;7003;46.982;15.248;2023-08-08T04:27:26;97458.78;;;8.32;100.00
13867;BME280;7003;46.982;15.248;2023-08-08T04:29:59;97463.09;;;8.28;100.00
13867;BME280;7003;46.982;15.248;2023-08-08T04:32:27;97463.56;;;8.30;100.00
13867;BME280;7003;46.982;15.248;2023-08-08T04:34:55;97464.00;;;8.45;100.00
13867;BME280;7003;46.982;15.248;2023-08-08T04:37:26;97462.03;;;8.51;100.00
13867;BME280;7003;46.982;15.248;2023-08-08T04:39:54;97452.34;;;8.55;100.00
13867;BME280;7003;46.982;15.248;2023-08-08T04:42:23;97458.19;;;8.66;100.00
13867;BME280;7003;46.982;15.248;2023-08-08T04:44:53;97469.41;;;8.63;100.00
13867;BME280;7003;46.982;15.248;2023-08-08T04:47:22;97470.97;;;8.64;100.00
13867;BME280;7003;46.982;15.248;2023-08-08T04:49:53;97467.66;;;8.58;100.00
13867;BME280;7003;46.982;15.248;2023-08-08T04:52:21;97475.13;;;8.56;100.00
13867;BME280;7003;46.982;15.248;2023-08-08T04:54:50;97474.69;;;8.63;100.00
13867;BME280;7003;46.982;15.248;2023-08-08T04:57:18;97478.97;;;8.72;100.00
13867;BME280;7003;46.982;15.248;2023-08-08T04:59:46;97474.50;;;8.81;100.00
13867;BME280;7003;46.982;15.248;2023-08-08T05:02:17;97473.75;;;8.90;100.00
13867;BME280;7003;46.982;15.248;2023-08-08T05:04:46;97477.53;;;8.97;100.00
13867;BME280;7003;46.982;15.248;2023-08-08T05:07:17;97482.09;;;9.05;100.00
13867;BME280;7003;46.982;15.248;2023-08-08T05:09:45;97490.84;;;9.14;100.00
13867;BME280;7003;46.982;15.248;2023-08-08T05:12:15;97484.66;;;9.27;100.00
13867;BME280;7003;46.982;15.248;2023-08-08T05:14:43;97487.06;;;9.46;100.00
13867;BME280;7003;46.982;15.248;2023-08-08T05:17:12;97493.16;;;9.55;100.00
13867;BME280;7003;46.982;15.248;2023-08-08T05:19:42;97493.69;;;9.75;100.00
13867;BME280;7003;46.982;15.248;2023-08-08T05:22:11;97501.19;;;10.16;100.00
13867;BME280;7003;46.982;15.248;2023-08-08T05:24:39;97498.53;;;10.59;100.00
13867;BME280;7003;46.982;15.248;2023-08-08T05:27:07;97495.28;;;11.00;100.00
13867;BME280;7003;46.982;15.248;2023-08-08T05:29:37;97502.38;;;11.34;100.00
13867;BME280;7003;46.982;15.248;2023-08-08T05:32:07;97504.75;;;11.85;100.00
13867;BME280;7003;46.982;15.248;2023-08-08T05:34:35;97502.81;;;12.36;100.00
13867;BME280;7003;46.982;15.248;2023-08-08T05:37:04;97499.84;;;12.83;100.00
13867;BME280;7003;46.982;15.248;2023-08-08T05:39:33;97495.81;;;13.22;100.00
13867;BME280;7003;46.982;15.248;2023-08-08T05:42:04;97504.38;;;13.64;100.00
13867;BME280;7003;46.982;15.248;2023-08-08T05:44:34;97503.25;;;13.89;100.00
13867;BME280;7003;46.982;15.248;2023-08-08T05:47:03;97499.78;;;13.88;100.00
13867;BME280;7003;46.982;15.248;2023-08-08T05:49:34;97501.13;;;13.82;100.00
13867;BME280;7003;46.982;15.248;2023-08-08T05:52:05;97502.91;;;13.78;100.00
13867;BME280;7003;46.982;15.248;2023-08-08T05:54:34;97503.06;;;14.10;100.00
13867;BME280;7003;46.982;15.248;2023-08-08T05:57:05;97495.25;;;14.17;100.00
13867;BME280;7003;46.982;15.248;2023-08-08T05:59:36;97496.16;;;14.21;100.00
13867;BME280;7003;46.982;15.248;2023-08-08T06:02:06;97497.38;;;14.23;100.00
13867;BME280;7003;46.982;15.248;2023-08-08T06:04:35;97499.13;;;14.32;100.00
13867;BME280;7003;46.982;15.248;2023-08-08T06:07:05;97494.38;;;14.53;100.00
13867;BME280;7003;46.982;15.248;2023-08-08T06:09:37;97494.75;;;14.67;100.00
13867;BME280;7003;46.982;15.248;2023-08-08T06:12:06;97499.78;;;14.69;100.00
13867;BME280;7003;46.982;15.248;2023-08-08T06:14:33;97497.28;;;14.76;100.00
13867;BME280;7003;46.982;15.248;2023-08-08T06:17:01;97492.00;;;14.79;100.00
13867;BME280;7003;46.982;15.248;2023-08-08T06:19:31;97494.34;;;14.96;100.00
13867;BME280;7003;46.982;15.248;2023-08-08T06:22:01;97502.91;;;14.86;100.00
13867;BME280;7003;46.982;15.248;2023-08-08T06:24:31;97497.13;;;14.84;100.00
13867;BME280;7003;46.982;15.248;2023-08-08T06:27:00;97499.19;;;14.91;100.00
13867;BME280;7003;46.982;15.248;2023-08-08T06:29:27;97495.25;;;15.00;100.00
13867;BME280;7003;46.982;15.248;2023-08-08T06:31:56;97497.94;;;15.00;100.00
13867;BME280;7003;46.982;15.248;2023-08-08T06:34:27;97496.69;;;14.98;100.00
13867;BME280;7003;46.982;15.248;2023-08-08T06:36:54;97496.97;;;15.09;100.00
13867;BME280;7003;46.982;15.248;2023-08-08T06:39:21;97499.28;;;15.10;100.00
13867;BME280;7003;46.982;15.248;2023-08-08T06:41:49;97494.97;;;15.37;100.00
13867;BME280;7003;46.982;15.248;2023-08-08T06:44:17;97492.56;;;15.63;100.00
13867;BME280;7003;46.982;15.248;2023-08-08T06:46:47;97495.56;;;15.97;100.00
13867;BME280;7003;46.982;15.248;2023-08-08T06:49:17;97501.56;;;16.25;100.00
13867;BME280;7003;46.982;15.248;2023-08-08T06:51:44;97497.88;;;16.33;100.00
13867;BME280;7003;46.982;15.248;2023-08-08T06:54:12;97505.22;;;16.17;100.00
13867;BME280;7003;46.982;15.248;2023-08-08T06:56:41;97508.63;;;16.33;100.00
13867;BME280;7003;46.982;15.248;2023-08-08T06:59:12;97503.03;;;16.61;100.00
13867;BME280;7003;46.982;15.248;2023-08-08T07:01:43;97500.28;;;16.77;100.00
13867;BME280;7003;46.982;15.248;2023-08-08T07:04:10;97502.00;;;16.88;100.00
13867;BME280;7003;46.982;15.248;2023-08-08T07:06:37;97501.19;;;17.07;100.00
13867;BME280;7003;46.982;15.248;2023-08-08T07:09:07;97501.00;;;17.19;100.00
13867;BME280;7003;46.982;15.248;2023-08-08T07:11:36;97503.31;;;16.98;100.00
13867;BME280;7003;46.982;15.248;2023-08-08T07:14:04;97500.72;;;17.02;100.00
13867;BME280;7003;46.982;15.248;2023-08-08T07:16:33;97494.78;;;17.38;100.00
13867;BME280;7003;46.982;15.248;2023-08-08T07:19:05;97492.41;;;17.59;100.00
13867;BME280;7003;46.982;15.248;2023-08-08T07:21:35;97485.59;;;17.39;85.81
13867;BME280;7003;46.982;15.248;2023-08-08T07:24:03;97489.56;;;17.49;91.11
13867;BME280;7003;46.982;15.248;2023-08-08T07:26:33;97482.97;;;17.95;99.96
13867;BME280;7003;46.982;15.248;2023-08-08T07:29:01;97481.94;;;18.37;93.41
13867;BME280;7003;46.982;15.248;2023-08-08T07:31:30;97482.72;;;18.37;95.99
13867;BME280;7003;46.982;15.248;2023-08-08T07:33:59;97489.84;;;18.23;99.45
13867;BME280;7003;46.982;15.248;2023-08-08T07:36:28;97487.41;;;18.44;90.54
13867;BME280;7003;46.982;15.248;2023-08-08T07:38:55;97480.41;;;18.69;96.24
13867;BME280;7003;46.982;15.248;2023-08-08T07:41:29;97480.88;;;18.78;63.92
13867;BME280;7003;46.982;15.248;2023-08-08T07:43:57;97475.50;;;18.82;66.59
13867;BME280;7003;46.982;15.248;2023-08-08T07:46:24;97476.16;;;19.09;68.00
13867;BME280;7003;46.982;15.248;2023-08-08T07:48:52;97467.44;;;19.26;69.70
13867;BME280;7003;46.982;15.248;2023-08-08T07:51:19;97468.94;;;19.20;69.62
13867;BME280;7003;46.982;15.248;2023-08-08T07:53:48;97469.69;;;19.65;68.69
13867;BME280;7003;46.982;15.248;2023-08-08T07:56:15;97471.59;;;19.68;63.05
13867;BME280;7003;46.982;15.248;2023-08-08T07:58:44;97464.56;;;19.52;63.17
13867;BME280;7003;46.982;15.248;2023-08-08T08:01:12;97464.59;;;19.56;71.58
13867;BME280;7003;46.982;15.248;2023-08-08T08:03:42;97458.44;;;19.55;68.43
13867;BME280;7003;46.982;15.248;2023-08-08T08:06:09;97452.91;;;19.41;64.44
13867;BME280;7003;46.982;15.248;2023-08-08T08:08:39;97458.47;;;19.63;63.23
13867;BME280;7003;46.982;15.248;2023-08-08T08:11:09;97446.97;;;19.76;59.72
13867;BME280;7003;46.982;15.248;2023-08-08T08:13:39;97444.88;;;20.17;64.99
13867;BME280;7003;46.982;15.248;2023-08-08T08:16:09;97439.56;;;20.35;61.45
13867;BME280;7003;46.982;15.248;2023-08-08T08:18:38;97439.69;;;19.84;54.66
13867;BME280;7003;46.982;15.248;2023-08-08T08:21:06;97441.63;;;19.83;62.26
13867;BME280;7003;46.982;15.248;2023-08-08T08:23:33;97441.00;;;20.11;65.39
13867;BME280;7003;46.982;15.248;2023-08-08T08:26:03;97433.25;;;20.13;57.84
13867;BME280;7003;46.982;15.248;2023-08-08T08:28:31;97432.91;;;20.22;59.20
13867;BME280;7003;46.982;15.248;2023-08-08T08:31:04;97429.56;;;20.50;63.74
13867;BME280;7003;46.982;15.248;2023-08-08T08:33:31;97438.09;;;20.84;62.48
13867;BME280;7003;46.982;15.248;2023-08-08T08:36:02;97431.56;;;20.81;62.29
13867;BME280;7003;46.982;15.248;2023-08-08T08:38:31;97430.75;;;20.63;61.62
13867;BME280;7003;46.982;15.248;2023-08-08T08:41:02;97428.84;;;20.81;63.19
13867;BME280;7003;46.982;15.248;2023-08-08T08:43:33;97427.28;;;20.66;64.91
13867;BME280;7003;46.982;15.248;2023-08-08T08:46:01;97434.59;;;20.62;64.21
13867;BME280;7003;46.982;15.248;2023-08-08T08:48:30;97426.47;;;20.48;61.30
13867;BME280;7003;46.982;15.248;2023-08-08T08:51:00;97432.31;;;20.78;60.45
13867;BME280;7003;46.982;15.248;2023-08-08T08:53:31;97432.66;;;20.52;63.42
13867;BME280;7003;46.982;15.248;2023-08-08T08:56:07;97435.75;;;20.57;64.46
13867;BME280;7003;46.982;15.248;2023-08-08T08:58:39;97429.34;;;19.93;69.61
13867;BME280;7003;46.982;15.248;2023-08-08T09:01:09;97422.41;;;19.95;60.19
13867;BME280;7003;46.982;15.248;2023-08-08T09:03:39;97421.59;;;19.91;65.34
13867;BME280;7003;46.982;15.248;2023-08-08T09:06:11;97420.88;;;20.02;58.71
13867;BME280;7003;46.982;15.248;2023-08-08T09:08:42;97414.00;;;20.11;61.94
13867;BME280;7003;46.982;15.248;2023-08-08T09:11:15;97415.25;;;20.39;62.60
13867;BME280;7003;46.982;15.248;2023-08-08T09:13:43;97421.06;;;20.48;57.04
13867;BME280;7003;46.982;15.248;2023-08-08T09:16:10;97419.38;;;20.15;55.45
13867;BME280;7003;46.982;15.248;2023-08-08T09:18:38;97417.13;;;20.20;59.49
13867;BME280;7003;46.982;15.248;2023-08-08T09:21:05;97411.41;;;20.36;54.01
13867;BME280;7003;46.982;15.248;2023-08-08T09:23:36;97413.31;;;20.35;57.10
13867;BME280;7003;46.982;15.248;2023-08-08T09:26:06;97413.56;;;20.06;55.83
13867;BME280;7003;46.982;15.248;2023-08-08T09:28:36;97408.53;;;20.01;65.95
13867;BME280;7003;46.982;15.248;2023-08-08T09:31:08;97407.94;;;20.46;60.15
13867;BME280;7003;46.982;15.248;2023-08-08T09:33:38;97402.41;;;20.14;52.57
13867;BME280;7003;46.982;15.248;2023-08-08T09:36:06;97398.59;;;20.29;58.08
13867;BME280;7003;46.982;15.248;2023-08-08T09:38:36;97394.06;;;20.69;58.86
13867;BME280;7003;46.982;15.248;2023-08-08T09:41:06;97380.56;;;20.87;49.95
13867;BME280;7003;46.982;15.248;2023-08-08T09:43:36;97385.97;;;21.08;53.68
13867;BME280;7003;46.982;15.248;2023-08-08T09:46:09;97384.03;;;21.12;54.49
13867;BME280;7003;46.982;15.248;2023-08-08T09:48:39;97387.91;;;21.22;50.58
13867;BME280;7003;46.982;15.248;2023-08-08T09:51:10;97377.88;;;21.04;49.89
13867;BME280;7003;46.982;15.248;2023-08-08T09:53:41;97359.66;;;21.51;48.15
13867;BME280;7003;46.982;15.248;2023-08-08T09:56:10;97362.28;;;21.72;48.36
13867;BME280;7003;46.982;15.248;2023-08-08T09:58:38;97365.72;;;21.87;49.30
13867;BME280;7003;46.982;15.248;2023-08-08T10:01:06;97363.78;;;21.91;47.96
13867;BME280;7003;46.982;15.248;2023-08-08T10:03:35;97366.88;;;21.89;45.99
13867;BME280;7003;46.982;15.248;2023-08-08T10:06:06;97360.59;;;22.14;48.15
13867;BME280;7003;46.982;15.248;2023-08-08T10:08:35;97360.13;;;22.26;46.24
13867;BME280;7003;46.982;15.248;2023-08-08T10:11:05;97350.69;;;21.68;49.92
13867;BME280;7003;46.982;15.248;2023-08-08T10:13:36;97349.81;;;22.03;51.44
13867;BME280;7003;46.982;15.248;2023-08-08T10:16:04;97341.47;;;21.59;48.13
13867;BME280;7003;46.982;15.248;2023-08-08T10:18:36;97351.38;;;21.90;50.10
13867;BME280;7003;46.982;15.248;2023-08-08T10:21:06;97336.59;;;22.12;47.62
13867;BME280;7003;46.982;15.248;2023-08-08T10:23:36;97337.41;;;22.06;47.60
13867;BME280;7003;46.982;15.248;2023-08-08T10:26:04;97330.56;;;22.46;49.56
13867;BME280;7003;46.982;15.248;2023-08-08T10:28:33;97331.97;;;22.64;46.77
13867;BME280;7003;46.982;15.248;2023-08-08T10:31:03;97325.41;;;23.10;45.71
13867;BME280;7003;46.982;15.248;2023-08-08T10:33:42;97319.72;;;22.97;45.19
13867;BME280;7003;46.982;15.248;2023-08-08T10:36:12;97315.84;;;22.47;42.85
13867;BME280;7003;46.982;15.248;2023-08-08T10:38:40;97322.28;;;22.08;44.96
13867;BME280;7003;46.982;15.248;2023-08-08T10:41:11;97314.63;;;22.55;45.62
13867;BME280;7003;46.982;15.248;2023-08-08T10:43:48;97313.06;;;22.57;50.16
13867;BME280;7003;46.982;15.248;2023-08-08T10:46:23;97303.16;;;22.85;49.02
13867;BME280;7003;46.982;15.248;2023-08-08T10:48:53;97311.91;;;23.03;49.24
13867;BME280;7003;46.982;15.248;2023-08-08T10:51:21;97301.13;;;22.96;42.47
13867;BME280;7003;46.982;15.248;2023-08-08T10:53:51;97298.81;;;22.98;47.50
13867;BME280;7003;46.982;15.248;2023-08-08T10:56:20;97298.34;;;23.03;46.71
13867;BME280;7003;46.982;15.248;2023-08-08T10:58:49;97290.72;;;22.91;49.96
13867;BME280;7003;46.982;15.248;2023-08-08T11:01:19;97296.03;;;22.57;47.39
13867;BME280;7003;46.982;15.248;2023-08-08T11:03:54;97297.63;;;22.99;50.41
13867;BME280;7003;46.982;15.248;2023-08-08T11:06:25;97291.69;;;23.11;45.06
13867;BME280;7003;46.982;15.248;2023-08-08T11:08:56;97283.47;;;22.81;46.09
13867;BME280;7003;46.982;15.248;2023-08-08T11:11:24;97283.56;;;22.63;49.42
13867;BME280;7003;46.982;15.248;2023-08-08T11:13:51;97278.91;;;22.67;48.94
13867;BME280;7003;46.982;15.248;2023-08-08T11:16:21;97279.53;;;22.85;48.01
13867;BME280;7003;46.982;15.248;2023-08-08T11:18:48;97275.91;;;22.54;46.75
13867;BME280;7003;46.982;15.248;2023-08-08T11:21:17;97278.16;;;22.63;49.28
13867;BME280;7003;46.982;15.248;2023-08-08T11:23:46;97274.53;;;22.84;50.25
13867;BME280;7003;46.982;15.248;2023-08-08T11:26:17;97276.50;;;22.80;47.39
13867;BME280;7003;46.982;15.248;2023-08-08T11:28:51;97269.59;;;22.68;48.10
13867;BME280;7003;46.982;15.248;2023-08-08T11:31:20;97275.63;;;22.90;45.10
13867;BME280;7003;46.982;15.248;2023-08-08T11:33:50;97265.66;;;22.80;44.05
13867;BME280;7003;46.982;15.248;2023-08-08T11:36:23;97265.50;;;22.49;48.14
13867;BME280;7003;46.982;15.248;2023-08-08T11:38:53;97255.03;;;22.51;49.62
13867;BME280;7003;46.982;15.248;2023-08-08T11:41:24;97253.81;;;22.56;50.45
13867;BME280;7003;46.982;15.248;2023-08-08T11:43:55;97256.28;;;22.88;49.40
13867;BME280;7003;46.982;15.248;2023-08-08T11:46:23;97251.47;;;23.36;48.31
13867;BME280;7003;46.982;15.248;2023-08-08T11:48:53;97240.72;;;22.92;42.97
13867;BME280;7003;46.982;15.248;2023-08-08T11:51:25;97251.69;;;22.81;48.22
13867;BME280;7003;46.982;15.248;2023-08-08T11:53:54;97240.41;;;22.38;46.64
13867;BME280;7003;46.982;15.248;2023-08-08T11:56:25;97234.25;;;22.34;50.17
13867;BME280;7003;46.982;15.248;2023-08-08T11:58:52;97231.16;;;22.36;49.89
13867;BME280;7003;46.982;15.248;2023-08-08T12:01:22;97225.41;;;22.71;50.74
13867;BME280;7003;46.982;15.248;2023-08-08T12:03:55;97226.31;;;23.32;52.76
13867;BME280;7003;46.982;15.248;2023-08-08T12:06:29;97227.75;;;23.40;48.42
13867;BME280;7003;46.982;15.248;2023-08-08T12:08:56;97224.78;;;23.62;48.81
13867;BME280;7003;46.982;15.248;2023-08-08T12:11:24;97230.16;;;23.96;49.15
13867;BME280;7003;46.982;15.248;2023-08-08T12:13:51;97215.94;;;24.11;53.51
13867;BME280;7003;46.982;15.248;2023-08-08T12:16:21;97217.03;;;24.41;53.26
13867;BME280;7003;46.982;15.248;2023-08-08T12:18:48;97214.94;;;23.45;44.30
13867;BME280;7003;46.982;15.248;2023-08-08T12:21:18;97216.84;;;23.14;44.06
13867;BME280;7003;46.982;15.248;2023-08-08T12:23:48;97213.06;;;22.67;49.99
13867;BME280;7003;46.982;15.248;2023-08-08T12:26:17;97211.66;;;22.51;51.94
13867;BME280;7003;46.982;15.248;2023-08-08T12:28:47;97205.31;;;22.24;54.21
13867;BME280;7003;46.982;15.248;2023-08-08T12:31:20;97205.69;;;22.22;53.20
13867;BME280;7003;46.982;15.248;2023-08-08T12:33:48;97210.00;;;22.61;58.03
13867;BME280;7003;46.982;15.248;2023-08-08T12:36:16;97205.66;;;22.71;58.00
13867;BME280;7003;46.982;15.248;2023-08-08T12:38:44;97199.19;;;22.16;51.14
13867;BME280;7003;46.982;15.248;2023-08-08T12:41:14;97197.19;;;22.24;55.29
13867;BME280;7003;46.982;15.248;2023-08-08T12:43:44;97194.47;;;22.24;55.03
13867;BME280;7003;46.982;15.248;2023-08-08T12:46:12;97195.53;;;22.37;55.48
13867;BME280;7003;46.982;15.248;2023-08-08T12:48:43;97190.97;;;22.27;52.25
13867;BME280;7003;46.982;15.248;2023-08-08T12:51:12;97187.16;;;22.17;55.47
13867;BME280;7003;46.982;15.248;2023-08-08T12:53:42;97190.91;;;22.34;54.42
13867;BME280;7003;46.982;15.248;2023-08-08T12:56:13;97185.28;;;22.55;58.72
13867;BME280;7003;46.982;15.248;2023-08-08T12:58:41;97190.41;;;22.46;56.64
13867;BME280;7003;46.982;15.248;2023-08-08T13:01:11;97185.94;;;22.25;54.27
13867;BME280;7003;46.982;15.248;2023-08-08T13:03:39;97182.53;;;22.18;56.11
13867;BME280;7003;46.982;15.248;2023-08-08T13:06:07;97187.94;;;22.18;61.19
13867;BME280;7003;46.982;15.248;2023-08-08T13:08:36;97177.59;;;22.06;58.34